Time;durP1;ratioP1;P1;durP2;ratioP2;P2;SDS_P1;SDS_P2;PMS_P1;PMS_P2;Temp;Humidity;BMP_temperature;BMP_pressure;BME280_temperature;BME280_humidity;BME280_pressure;Samples;Min_cycle;Max_cycle;Signal;HPM_P1;HPM_P2
2021/12/19 00:04:26;;;;;;;6.40;2.15;;;11.30;62.50;;;9.65;67.74;102219.66;8404008;28;20111;-89
2021/12/19 00:08:50;;;;;;;3.00;1.50;;;11.30;62.40;;;9.69;67.61;102220.44;8388410;28;20051;-89
2021/12/19 00:13:13;;;;;;;4.65;1.88;;;11.30;62.40;;;9.72;67.85;102215.13;8383590;28;20039;-88
2021/12/19 00:17:34;;;;;;;4.15;1.98;;;11.20;62.80;;;9.73;67.65;102215.09;8397261;28;20123;-87
2021/12/19 00:21:56;;;;;;;4.63;2.10;;;11.10;62.20;;;9.68;67.70;102196.09;8358254;28;20036;-91
2021/12/19 00:26:18;;;;;;;2.88;1.63;;;11.30;62.40;;;9.66;67.08;102189.22;8368799;28;20126;-87
2021/12/19 00:30:40;;;;;;;5.53;1.92;;;11.30;62.40;;;9.72;67.73;102187.31;8385990;28;20119;-87
2021/12/19 00:35:02;;;;;;;2.50;1.55;;;11.20;62.30;;;9.73;67.42;102185.56;8375458;28;20035;-88
2021/12/19 00:39:24;;;;;;;1.63;1.30;;;11.30;62.20;;;9.75;68.09;102176.78;8398185;28;20401;-87
2021/12/19 00:43:53;;;;;;;4.30;2.08;;;11.30;62.20;;;9.75;67.76;102187.22;8360696;28;20111;-89
2021/12/19 00:48:15;;;;;;;2.45;1.50;;;11.30;62.20;;;9.71;67.50;102172.53;8387204;28;20047;-88
2021/12/19 00:52:37;;;;;;;5.57;1.73;;;11.30;62.40;;;9.71;67.63;102156.03;8395160;28;20127;-86
2021/12/19 00:56:59;;;;;;;2.88;1.60;;;11.30;62.30;;;9.75;67.47;102161.13;8404334;28;20123;-88
2021/12/19 01:01:21;;;;;;;2.15;1.50;;;11.30;62.30;;;9.73;67.73;102160.31;8397030;28;20038;-88
2021/12/19 01:05:43;;;;;;;3.47;1.70;;;11.30;62.20;;;9.75;67.01;102168.97;8391982;28;20123;-87
2021/12/19 01:10:08;;;;;;;2.20;1.27;;;11.30;62.20;;;9.74;67.55;102167.22;8389088;28;20707;-88
2021/12/19 01:14:30;;;;;;;3.42;1.67;;;11.30;62.10;;;9.75;67.40;102166.34;8385242;28;20123;-89
2021/12/19 01:18:52;;;;;;;3.58;2.03;;;11.30;62.00;;;9.74;67.16;102163.78;8370457;28;20127;-89
2021/12/19 01:23:14;;;;;;;1.67;1.33;;;11.20;61.90;;;9.68;67.35;102146.53;8381483;28;20047;-88
2021/12/19 01:27:36;;;;;;;1.58;1.48;;;11.30;62.10;;;9.67;67.46;102137.03;8383386;28;20115;-88
2021/12/19 01:31:58;;;;;;;5.22;1.95;;;11.30;61.80;;;9.64;67.18;102131.91;8399839;28;20667;-88
2021/12/19 01:36:20;;;;;;;2.15;1.77;;;11.20;61.70;;;9.67;67.27;102138.78;8405179;28;20462;-88
2021/12/19 01:40:41;;;;;;;1.50;1.40;;;11.20;62.10;;;9.68;66.78;102122.22;8398910;28;20038;-87
2021/12/19 01:45:10;;;;;;;3.60;1.75;;;11.20;61.80;;;9.65;67.39;102104.91;8368562;28;20547;-88
2021/12/19 01:49:32;;;;;;;2.25;1.63;;;11.20;62.20;;;9.72;67.78;102108.16;8381167;28;20111;-88
2021/12/19 01:53:54;;;;;;;2.90;2.20;;;11.20;61.60;;;9.69;67.02;102096.09;8396530;28;20119;-89
2021/12/19 01:58:17;;;;;;;2.78;2.17;;;11.20;61.70;;;9.62;67.21;102094.56;8390693;28;20473;-86
2021/12/19 02:02:42;;;;;;;4.82;2.53;;;11.30;61.70;;;9.65;67.26;102098.84;8379132;28;20041;-85
2021/12/19 02:07:04;;;;;;;5.10;2.50;;;11.20;61.30;;;9.65;67.29;102084.03;8373048;28;20123;-85
2021/12/19 02:11:26;;;;;;;2.60;2.10;;;11.20;61.40;;;9.66;66.77;102077.91;8378704;28;20127;-87
2021/12/19 02:15:48;;;;;;;4.88;2.55;;;11.20;61.60;;;9.63;66.86;102057.16;8412511;28;20134;-88
2021/12/19 02:20:12;;;;;;;4.65;2.75;;;11.20;61.20;;;9.64;66.90;102050.16;8379147;28;20037;-88
2021/12/19 02:24:34;;;;;;;3.85;2.70;;;11.20;61.20;;;9.58;67.32;102046.00;8381212;28;20032;-89
2021/12/19 02:28:56;;;;;;;4.38;2.33;;;11.20;61.60;;;9.63;66.94;102057.16;8396357;28;20123;-89
2021/12/19 02:33:22;;;;;;;3.22;2.22;;;11.20;61.50;;;9.59;67.16;102063.38;8395599;28;20123;-87
2021/12/19 02:51:33;;;;;;;2.72;1.77;;;11.20;61.30;;;9.58;67.12;102029.50;8394280;28;20123;-89
2021/12/19 02:55:55;;;;;;;3.83;1.30;;;11.10;61.50;;;9.60;66.76;102033.75;8410221;28;20126;-88
2021/12/19 03:00:23;;;;;;;3.25;1.30;;;11.20;61.50;;;9.65;67.17;102057.09;8406970;28;20119;-88
2021/12/19 03:04:56;;;;;;;2.95;1.30;;;11.10;61.30;;;9.58;67.28;102037.31;8410916;28;20042;-87
2021/12/19 03:09:46;;;;;;;2.63;1.30;;;11.20;61.20;;;9.65;66.80;102028.41;8389341;28;20806;-87
2021/12/19 03:18:49;;;;;;;1.20;1.10;;;11.20;61.60;;;9.59;66.98;101994.72;8398506;28;20134;-88
2021/12/19 03:23:14;;;;;;;1.23;0.98;;;11.10;61.50;;;9.56;67.05;101985.22;8387168;28;20042;-86
2021/12/19 03:27:35;;;;;;;2.65;1.42;;;11.10;61.50;;;9.60;67.14;101993.81;8403349;28;20121;-87
2021/12/19 03:31:57;;;;;;;1.00;0.90;;;11.10;61.50;;;9.65;67.18;102000.59;8407612;28;20119;-86
2021/12/19 03:36:19;;;;;;;5.20;1.30;;;11.20;61.30;;;9.60;67.19;101992.03;8419992;28;20464;-88
2021/12/19 03:40:50;;;;;;;1.25;1.10;;;11.20;61.40;;;9.64;67.11;102004.09;8377217;28;20116;-89
2021/12/19 03:45:18;;;;;;;2.15;1.20;;;11.20;61.40;;;9.62;66.83;102000.69;8367458;28;20032;-88
2021/12/19 03:49:40;;;;;;;1.35;1.10;;;11.10;61.40;;;9.71;66.88;101991.72;8396779;22;20044;-83
2021/12/19 03:54:01;;;;;;;1.60;1.20;;;11.10;61.40;;;9.64;67.01;101964.09;8378239;28;20542;-84
2021/12/19 03:58:23;;;;;;;3.45;1.23;;;11.20;61.50;;;9.51;67.21;101941.03;8378714;28;20123;-83
2021/12/19 04:02:47;;;;;;;1.25;1.15;;;11.00;61.10;;;9.49;66.63;101934.16;8316906;28;20041;-84
2021/12/19 04:07:09;;;;;;;1.88;1.00;;;11.20;61.30;;;9.59;66.72;101953.00;8344558;28;20123;-83
2021/12/19 04:11:30;;;;;;;1.10;1.00;;;11.10;61.20;;;9.67;66.41;101987.50;8357997;28;20112;-83
2021/12/19 04:15:52;;;;;;;2.72;1.20;;;11.10;60.90;;;9.66;67.21;101984.00;8362721;28;20129;-83
2021/12/19 04:20:18;;;;;;;1.88;1.27;;;11.20;61.00;;;9.58;66.95;101957.31;8340007;28;20561;-83
2021/12/19 04:24:40;;;;;;;1.10;1.00;;;11.20;61.30;;;9.66;66.67;101973.59;8348889;28;20041;-83
2021/12/19 04:29:01;;;;;;;3.30;1.25;;;11.20;61.30;;;9.63;66.83;101965.88;8354817;28;20119;-83
2021/12/19 04:33:25;;;;;;;2.05;1.60;;;11.20;61.10;;;9.70;66.74;101987.41;8347199;28;20037;-83
2021/12/19 04:43:43;;;;;;;1.83;1.73;;;11.20;61.00;;;9.69;66.67;101981.34;8352843;28;20037;-83
2021/12/19 04:52:28;;;;;;;1.58;1.27;;;11.20;61.00;;;9.63;67.18;101965.88;8342700;28;20581;-83
2021/12/19 05:01:40;;;;;;;2.45;1.67;;;11.20;60.70;;;9.64;66.60;101961.50;8322328;28;20120;-83
2021/12/19 05:06:10;;;;;;;2.42;1.58;;;11.10;60.80;;;9.66;66.53;101955.31;8326359;28;20557;-83
2021/12/19 05:14:05;;;;;;;3.88;1.70;;;11.10;60.60;;;9.58;66.64;101957.31;8345552;28;20135;-83
2021/12/19 05:15:28;;;;;;;3.78;1.95;;;11.10;60.50;;;9.68;66.47;101961.34;8331628;28;20132;-83
2021/12/19 05:20:12;;;;;;;2.38;1.95;;;11.20;60.60;;;9.52;66.87;101941.88;8331293;28;20123;-83
2021/12/19 05:24:46;;;;;;;2.10;1.60;;;11.40;60.80;;;9.59;67.01;101934.72;8330568;28;20125;-83
2021/12/19 05:29:09;;;;;;;1.77;1.67;;;11.20;60.80;;;9.54;66.84;101934.88;8326775;28;20132;-83
2021/12/19 05:33:31;;;;;;;2.97;1.83;;;11.10;60.80;;;9.57;66.37;101939.13;8314941;28;20115;-83
2021/12/19 05:47:13;;;;;;;2.28;1.70;;;11.20;60.90;;;9.48;66.40;101927.25;8332904;28;20475;-83
2021/12/19 05:51:36;;;;;;;1.60;1.50;;;11.10;60.80;;;9.46;66.59;101916.00;8335699;28;20108;-82
2021/12/19 05:55:58;;;;;;;2.42;1.50;;;11.10;60.80;;;9.62;66.59;101938.09;8308576;28;20132;-83
2021/12/19 06:00:20;;;;;;;2.83;1.75;;;11.10;60.90;;;9.60;66.75;101939.03;8319123;28;20120;-84
2021/12/19 06:04:41;;;;;;;2.60;2.38;;;11.10;61.00;;;9.54;66.59;101927.03;8332437;28;20052;-82
2021/12/19 06:09:04;;;;;;;3.28;1.70;;;11.10;61.00;;;9.55;66.47;101928.75;8322542;28;20124;-83
2021/12/19 06:13:25;;;;;;;3.05;1.63;;;11.00;60.80;;;9.55;66.48;101936.56;8325999;28;20116;-83
2021/12/19 06:17:47;;;;;;;2.45;1.60;;;10.90;60.80;;;9.49;66.89;101928.94;8319071;28;20132;-83
2021/12/19 06:22:09;;;;;;;2.30;1.77;;;11.00;60.90;;;9.50;66.19;101920.22;8307694;28;20045;-83
2021/12/19 06:26:35;;;;;;;1.85;1.42;;;11.00;60.70;;;9.49;66.45;101911.53;8307410;28;20121;-83
2021/12/19 06:30:57;;;;;;;;;;;11.00;60.70;;;9.45;66.49;101899.50;8343396;28;20128;-83
2021/12/19 06:35:19;;;;;;;1.33;1.15;;;11.00;60.80;;;9.44;66.60;101915.19;8337598;28;20448;-83
2021/12/19 06:39:41;;;;;;;1.15;1.00;;;11.00;60.50;;;9.35;66.36;101892.03;8336352;28;20120;-83
2021/12/19 06:44:04;;;;;;;1.20;1.10;;;10.90;60.60;;;9.33;66.52;101893.81;8334077;28;20034;-83
2021/12/19 06:48:28;;;;;;;1.50;1.20;;;10.90;60.60;;;9.33;66.86;101883.41;8309339;28;20560;-82
2021/12/19 06:52:50;;;;;;;1.35;1.20;;;10.90;60.70;;;9.28;66.45;101880.91;8304345;28;20052;-82
2021/12/19 06:57:11;;;;;;;2.28;1.13;;;10.90;60.70;;;9.38;66.82;101898.00;8289231;28;20478;-84
2021/12/19 07:01:36;;;;;;;1.05;1.00;;;10.80;60.30;;;9.38;66.77;101899.75;8309456;28;20409;-83
2021/12/19 07:05:58;;;;;;;1.95;1.30;;;10.90;60.50;;;9.26;66.52;101865.34;8280868;28;20049;-83
2021/12/19 07:10:20;;;;;;;3.35;1.10;;;10.90;60.60;;;9.36;66.22;101878.94;8283825;28;20047;-82
2021/12/19 07:14:44;;;;;;;1.30;1.13;;;10.90;60.60;;;9.43;66.08;101890.03;8294450;28;20040;-86
2021/12/19 07:19:06;;;;;;;2.15;0.95;;;10.90;60.80;;;9.43;66.58;101890.88;8282996;28;20042;-81
2021/12/19 07:23:28;;;;;;;2.28;1.10;;;10.90;60.80;;;9.43;66.43;101864.81;8287767;28;20042;-80
2021/12/19 07:27:49;;;;;;;1.30;0.98;;;10.90;60.80;;;9.23;66.29;101847.19;8308378;28;20037;-82
2021/12/19 07:32:11;;;;;;;0.95;0.93;;;10.90;60.60;;;9.14;66.05;101825.78;8298913;28;20037;-81
2021/12/19 07:36:41;;;;;;;0.98;0.73;;;10.90;60.70;;;9.22;66.37;101861.13;8313940;28;20030;-81
2021/12/19 07:41:03;;;;;;;1.10;1.00;;;10.90;60.70;;;9.24;66.40;101851.50;8295524;28;20037;-81
2021/12/19 07:45:24;;;;;;;1.88;1.45;;;10.80;60.70;;;9.25;66.54;101840.16;8303051;28;20033;-81
2021/12/19 07:49:46;;;;;;;0.93;0.70;;;10.80;60.60;;;9.27;66.32;101851.41;8315881;28;20055;-85
2021/12/19 07:54:08;;;;;;;1.85;0.90;;;10.80;60.50;;;9.19;66.60;101822.13;8301871;28;20045;-85
2021/12/19 07:58:29;;;;;;;0.80;0.70;;;10.80;60.20;;;9.27;66.30;101827.09;8293250;28;20044;-84
2021/12/19 08:02:51;;;;;;;1.02;0.90;;;10.80;60.40;;;9.28;66.08;101823.59;8307032;28;20041;-85
2021/12/19 08:07:15;;;;;;;2.20;0.63;;;10.80;60.60;;;9.30;66.57;101835.66;8300826;28;20033;-83
2021/12/19 08:11:42;;;;;;;1.92;0.90;;;10.80;60.80;;;9.24;66.32;101815.03;8316213;28;20413;-86
2021/12/19 08:16:04;;;;;;;1.83;1.10;;;10.80;60.90;;;9.23;66.15;101807.22;8283471;28;20501;-85
2021/12/19 08:20:27;;;;;;;1.88;0.95;;;10.80;60.90;;;9.27;66.45;101819.28;8312934;28;20033;-86
2021/12/19 08:24:51;;;;;;;2.90;0.70;;;10.80;61.00;;;9.24;66.13;101801.16;8269655;28;20525;-84
2021/12/19 08:29:13;;;;;;;1.08;0.73;;;10.80;61.10;;;9.13;65.99;101788.47;8313218;28;20125;-83
2021/12/19 08:33:35;;;;;;;0.70;0.60;;;10.70;61.20;;;9.16;66.28;101806.59;8316345;28;20128;-82
2021/12/19 08:37:57;;;;;;;0.73;0.70;;;10.70;61.30;;;9.11;66.45;101789.41;8308129;28;20482;-89
2021/12/19 08:42:19;;;;;;;2.47;0.80;;;10.70;62.20;;;9.08;66.18;101788.59;8280992;28;20043;-85
2021/12/19 08:46:41;;;;;;;0.70;0.70;;;10.60;61.60;;;8.97;66.33;101766.41;8308756;28;20493;-87
2021/12/19 08:51:03;;;;;;;0.75;0.60;;;10.60;61.90;;;9.08;66.67;101779.94;8320032;28;20043;-83
2021/12/19 08:55:25;;;;;;;1.52;0.63;;;10.60;62.10;;;9.11;66.79;101790.25;8288209;28;20044;-84
2021/12/19 08:59:47;;;;;;;0.60;0.50;;;10.60;62.30;;;9.13;66.22;101784.97;8280892;28;20050;-84
2021/12/19 09:04:09;;;;;;;0.50;0.50;;;10.60;62.50;;;9.11;67.16;101789.41;8299682;28;20049;-84
2021/12/19 09:08:31;;;;;;;0.70;0.70;;;10.60;62.50;;;9.03;66.81;101771.41;8260479;28;20032;-84
2021/12/19 09:12:53;;;;;;;0.68;0.68;;;10.60;62.60;;;9.06;66.45;101781.72;8297180;28;20054;-84
2021/12/19 09:17:15;;;;;;;2.55;0.90;;;10.60;62.80;;;8.96;66.71;101754.25;8305575;28;20407;-84
2021/12/19 09:21:37;;;;;;;1.27;0.70;;;10.60;62.80;;;9.16;66.68;101788.34;8303963;28;20045;-82
2021/12/19 09:26:00;;;;;;;0.40;0.40;;;10.50;62.90;;;9.04;66.79;101757.47;8304358;28;20041;-84
2021/12/19 09:30:24;;;;;;;1.05;0.60;;;10.50;62.80;;;9.04;66.65;101752.25;8310602;28;20059;-85
2021/12/19 09:34:45;;;;;;;1.95;0.60;;;10.60;63.00;;;9.03;66.65;101755.78;8298199;28;20851;-83
2021/12/19 09:39:07;;;;;;;2.17;0.68;;;10.60;63.10;;;9.01;66.75;101747.16;8307149;28;20055;-85
2021/12/19 09:43:41;;;;;;;0.45;0.45;;;10.60;63.20;;;8.95;67.05;101737.78;8301426;28;20047;-85
2021/12/19 09:48:04;;;;;;;1.40;0.80;;;10.60;63.30;;;9.01;66.81;101744.53;8302320;28;20038;-86
2021/12/19 09:52:27;;;;;;;0.55;0.50;;;10.60;63.30;;;9.02;67.09;101743.66;8272471;28;20036;-89
2021/12/19 09:56:49;;;;;;;0.88;0.60;;;10.60;63.40;;;8.95;66.54;101713.50;8316213;28;20437;-83
2021/12/19 10:01:12;;;;;;;0.50;0.50;;;10.60;63.40;;;9.08;66.91;101735.63;8301586;28;20040;-85
2021/12/19 10:05:34;;;;;;;0.68;0.68;;;10.60;63.40;;;9.08;66.93;101718.25;8317346;28;20041;-86
2021/12/19 10:10:23;;;;;;;0.70;0.70;;;10.70;63.50;;;9.06;66.81;101734.81;8311314;28;20029;-86
2021/12/19 10:14:45;;;;;;;0.73;0.70;;;10.60;64.20;;;8.97;66.93;101714.28;8308145;28;20459;-84
2021/12/19 10:19:07;;;;;;;0.60;0.60;;;10.60;63.60;;;8.97;67.01;101720.34;8289626;28;20128;-84
2021/12/19 10:23:35;;;;;;;0.98;0.88;;;10.60;63.70;;;9.03;67.34;101714.94;8317609;28;20043;-83
2021/12/19 10:28:09;;;;;;;1.05;0.80;;;10.50;63.70;;;8.92;67.21;101700.56;8325021;28;20148;-83
2021/12/19 10:32:31;;;;;;;1.85;0.80;;;10.50;63.80;;;9.02;67.13;101708.03;8275162;28;20574;-83
2021/12/19 10:36:52;;;;;;;0.73;0.60;;;10.50;63.80;;;9.02;67.20;101683.75;8304022;28;20069;-84
2021/12/19 10:41:16;;;;;;;1.15;0.70;;;10.50;63.80;;;9.01;67.14;101693.28;8299053;28;20032;-83
2021/12/19 10:45:45;;;;;;;0.65;0.65;;;10.50;63.90;;;9.08;67.19;101706.97;8332035;28;20048;-84
2021/12/19 10:50:07;;;;;;;1.80;1.08;;;10.60;63.90;;;9.06;67.05;101699.19;8321415;28;20129;-83
2021/12/19 10:54:29;;;;;;;2.13;0.93;;;10.60;64.50;;;9.04;67.03;101694.94;8286088;28;20033;-82
2021/12/19 10:59:01;;;;;;;0.90;0.80;;;10.60;63.80;;;9.03;67.44;101675.00;8325417;28;20171;-83
2021/12/19 11:03:45;;;;;;;1.33;0.63;;;10.60;63.90;;;9.00;67.19;101660.31;8331290;28;20038;-83
2021/12/19 11:08:10;;;;;;;1.15;0.88;;;10.50;63.80;;;9.05;67.28;101665.41;8335148;28;20128;-83
2021/12/19 11:12:32;;;;;;;0.43;0.43;;;10.60;63.90;;;8.98;66.95;101624.81;8347925;28;20036;-83
2021/12/19 11:17:06;;;;;;;0.90;0.80;;;10.50;64.00;;;9.08;67.59;101639.22;8329248;28;20120;-83
2021/12/19 11:21:33;;;;;;;1.05;0.70;;;10.60;64.00;;;9.02;67.30;101621.22;8318137;28;20127;-83
2021/12/19 11:25:56;;;;;;;0.60;0.60;;;10.60;64.00;;;8.98;67.12;101609.19;8331296;28;20047;-85
2021/12/19 11:30:18;;;;;;;2.38;1.27;;;10.60;64.00;;;9.14;67.03;101628.59;8315214;28;20509;-86
2021/12/19 11:35:00;;;;;;;1.00;0.52;;;10.60;64.00;;;9.15;67.50;101625.06;8310456;28;20132;-84
2021/12/19 11:39:30;;;;;;;0.50;0.50;;;10.60;64.20;;;9.09;67.14;101594.03;8302582;28;20127;-87
2021/12/19 11:43:54;;;;;;;0.70;0.70;;;10.70;64.90;;;9.06;67.06;101579.34;8321659;28;20041;-87
2021/12/19 11:52:44;;;;;;;1.10;0.70;;;10.60;64.10;;;9.15;67.05;101578.16;8349146;28;20116;-84
2021/12/19 11:57:10;;;;;;;0.63;0.60;;;10.70;64.20;;;9.15;67.15;101564.28;8327679;28;20131;-83
2021/12/19 12:01:35;;;;;;;1.70;0.98;;;10.70;64.10;;;9.27;67.16;101572.53;8348693;28;20127;-82
2021/12/19 12:06:09;;;;;;;1.05;0.85;;;10.70;64.10;;;9.27;67.09;101556.88;8342270;28;20033;-82
2021/12/19 12:15:12;;;;;;;1.67;0.85;;;10.80;64.00;;;9.19;67.24;101545.06;8347229;28;20135;-82
2021/12/19 12:19:51;;;;;;;4.57;0.95;;;10.70;63.90;;;9.23;67.76;101534.44;8348146;28;20131;-83
2021/12/19 12:24:13;;;;;;;1.08;0.68;;;10.70;63.90;;;9.29;67.80;101538.59;8343432;28;20043;-83
2021/12/19 12:28:34;;;;;;;1.05;0.88;;;10.70;64.00;;;9.20;67.49;101518.91;8347392;28;20554;-83
2021/12/19 12:33:01;;;;;;;1.60;0.80;;;10.80;64.00;;;9.27;67.59;101529.97;8329562;28;20116;-83
2021/12/19 12:37:23;;;;;;;1.25;0.88;;;10.80;64.10;;;9.22;67.50;101508.44;8327138;28;20513;-83
2021/12/19 12:46:15;;;;;;;0.93;0.75;;;10.70;64.20;;;9.20;67.53;101478.97;8362706;22;20036;-75
2021/12/19 12:50:37;;;;;;;0.70;0.70;;;10.80;64.40;;;9.21;67.35;101484.16;8359087;28;20036;-77
2021/12/19 12:55:04;;;;;;;2.38;1.10;;;10.60;64.30;;;8.96;67.50;101436.44;8378677;28;20452;-76
2021/12/19 12:59:30;;;;;;;1.38;0.88;;;10.70;64.40;;;9.25;67.64;101480.50;8367167;28;20040;-77
2021/12/19 13:04:02;;;;;;;3.33;0.90;;;10.60;64.30;;;9.23;67.49;101479.72;8389490;28;20048;-75
2021/12/19 13:08:24;;;;;;;0.70;0.70;;;10.70;64.50;;;9.28;67.45;101490.81;8384889;28;20424;-77
2021/12/19 13:12:47;;;;;;;3.15;1.00;;;10.70;64.50;;;9.22;67.20;101461.53;8368586;28;20032;-79
2021/12/19 13:17:15;;;;;;;0.63;0.63;;;10.60;64.40;;;9.24;67.71;101478.81;8378229;28;20497;-78
2021/12/19 13:21:57;;;;;;;1.15;0.80;;;10.70;64.70;;;9.20;67.67;101466.81;8384701;28;20043;-75
2021/12/19 13:26:19;;;;;;;0.90;0.80;;;10.70;65.30;;;9.23;67.74;101466.69;8380027;28;20039;-79
2021/12/19 13:30:43;;;;;;;1.30;0.68;;;10.80;64.90;;;9.22;67.57;101465.00;8365377;28;20039;-76
2021/12/19 13:35:20;;;;;;;0.90;0.80;;;10.70;64.90;;;9.22;67.80;101458.94;8346594;28;20036;-76
2021/12/19 13:39:48;;;;;;;0.80;0.80;;;10.70;65.10;;;9.28;67.45;101469.13;8365913;28;20032;-78
2021/12/19 13:44:10;;;;;;;1.20;1.00;;;10.70;64.90;;;9.28;67.98;101467.34;8371380;28;20043;-72
2021/12/19 13:48:40;;;;;;;1.10;0.90;;;10.70;64.90;;;9.25;67.75;101464.03;8368984;28;20039;-77
2021/12/19 13:53:02;;;;;;;1.25;0.90;;;10.70;65.00;;;9.26;67.53;101453.56;8369736;28;20099;-77
2021/12/19 13:57:24;;;;;;;2.25;1.75;;;10.80;65.00;;;9.34;67.40;101460.22;8369973;28;20055;-76
2021/12/19 14:01:46;;;;;;;1.13;1.05;;;10.80;65.00;;;9.34;67.76;101457.59;8388659;28;20051;-75
2021/12/19 14:06:08;;;;;;;1.25;1.00;;;10.80;65.00;;;9.36;67.30;101454.03;8381903;28;20044;-76
2021/12/19 14:10:30;;;;;;;0.90;0.90;;;10.80;64.90;;;9.34;67.49;101441.97;8390057;28;20032;-77
2021/12/19 14:14:52;;;;;;;1.88;1.00;;;10.80;65.00;;;9.33;67.52;101445.50;8384269;28;20070;-78
2021/12/19 14:19:21;;;;;;;0.93;0.70;;;10.80;65.00;;;9.29;67.69;101432.59;8350275;28;20040;-75
2021/12/19 14:23:42;;;;;;;0.52;0.50;;;10.80;65.00;;;9.24;67.55;101437.13;8366504;28;20047;-77
2021/12/19 14:28:22;;;;;;;1.48;0.70;;;10.80;65.00;;;9.30;67.46;101449.06;8355885;28;20052;-79
2021/12/19 14:32:50;;;;;;;0.60;0.60;;;10.80;65.10;;;9.34;67.76;101453.25;8386185;28;20055;-78
2021/12/19 14:37:22;;;;;;;0.65;0.57;;;10.80;65.00;;;9.35;67.50;101446.28;8384117;28;20038;-77
2021/12/19 14:41:43;;;;;;;1.40;0.80;;;10.80;65.20;;;9.34;67.27;101434.16;8393714;28;20120;-79
2021/12/19 14:46:05;;;;;;;1.17;1.10;;;10.80;65.20;;;9.35;67.75;101443.69;8386637;28;20055;-78
2021/12/19 14:50:56;;;;;;;0.88;0.88;;;10.80;65.10;;;9.34;67.94;101447.19;8399214;28;20127;-80
2021/12/19 14:55:18;;;;;;;0.60;0.60;;;10.80;65.20;;;9.38;67.59;101451.38;8394580;28;20127;-77
2021/12/19 14:59:39;;;;;;;0.70;0.70;;;10.90;65.10;;;9.31;67.21;101440.34;8399608;28;20127;-77
2021/12/19 15:04:07;;;;;;;2.35;1.10;;;10.70;65.00;;;9.38;67.73;101461.81;8383727;28;20488;-79
2021/12/19 15:08:29;;;;;;;1.40;0.80;;;10.80;65.20;;;9.31;67.65;101451.59;8394828;28;20127;-78
2021/12/19 15:12:50;;;;;;;0.73;0.68;;;10.80;65.10;;;9.26;67.82;101445.75;8383504;28;20127;-80
2021/12/19 15:17:12;;;;;;;0.80;0.70;;;10.80;65.10;;;9.38;67.84;101464.41;8398818;28;20133;-78
2021/12/19 15:21:35;;;;;;;0.90;0.77;;;10.80;65.20;;;9.38;67.92;101461.81;8391350;28;20036;-80
2021/12/19 15:25:56;;;;;;;4.68;1.13;;;10.80;65.20;;;9.37;67.60;101458.38;8386100;28;20040;-78
2021/12/19 15:30:18;;;;;;;0.93;0.90;;;10.80;65.20;;;9.37;68.01;101463.56;8388037;28;20123;-79
2021/12/19 15:34:40;;;;;;;1.25;1.00;;;10.80;65.10;;;9.39;67.54;101469.56;8394379;28;20126;-79
2021/12/19 15:39:06;;;;;;;1.90;0.90;;;10.70;65.10;;;9.37;67.86;101462.69;8387924;28;20503;-78
2021/12/19 15:43:28;;;;;;;3.45;1.15;;;10.80;65.20;;;9.36;67.76;101461.03;8381560;28;20144;-79
2021/12/19 15:47:50;;;;;;;2.22;1.27;;;10.80;65.10;;;9.35;67.90;101456.72;8391992;28;20485;-79
2021/12/19 15:52:12;;;;;;;1.75;1.23;;;10.80;65.10;;;9.28;67.62;101449.13;8387717;28;20039;-78
2021/12/19 15:56:33;;;;;;;1.23;1.02;;;10.90;65.20;;;9.40;67.50;101470.44;8401405;28;20498;-79
2021/12/19 16:00:55;;;;;;;2.40;1.00;;;10.80;65.10;;;9.38;67.93;101464.41;8393685;28;20485;-80
2021/12/19 16:05:20;;;;;;;1.15;1.00;;;10.80;65.00;;;9.40;67.74;101467.81;8399722;28;20042;-78
2021/12/19 16:09:43;;;;;;;1.05;0.90;;;10.90;65.10;;;9.39;67.82;101458.28;8378362;28;20548;-79
2021/12/19 16:14:05;;;;;;;2.33;1.20;;;10.80;65.00;;;9.37;67.78;101471.41;8366871;28;20123;-79
2021/12/19 16:18:26;;;;;;;2.45;1.33;;;10.90;65.10;;;9.33;67.66;101484.59;8377023;28;20124;-79
2021/12/19 16:22:48;;;;;;;1.38;0.80;;;10.80;64.90;;;9.13;67.53;101428.88;8383063;28;20474;-79
2021/12/19 16:27:10;;;;;;;2.90;1.15;;;10.80;64.80;;;9.36;67.82;101467.06;8398151;28;20500;-80
2021/12/19 16:31:32;;;;;;;1.75;1.15;;;10.90;64.80;;;9.30;67.86;101472.53;8378186;28;20031;-77
2021/12/19 16:35:53;;;;;;;2.08;1.45;;;10.80;64.70;;;9.29;67.42;101471.69;8355649;28;20158;-79
2021/12/19 16:40:15;;;;;;;2.65;1.70;;;10.90;64.60;;;9.37;67.96;101494.84;8386341;28;20131;-79
2021/12/19 16:44:38;;;;;;;2.53;1.35;;;10.80;64.40;;;9.28;67.60;101490.81;8393489;28;20499;-80
2021/12/19 16:49:00;;;;;;;2.10;1.17;;;10.80;64.20;;;9.29;67.59;101502.13;8377923;28;20119;-79
2021/12/19 16:53:21;;;;;;;3.42;1.42;;;10.70;64.00;;;9.28;67.65;101503.84;8394397;28;20124;-78
2021/12/19 16:57:43;;;;;;;4.43;1.67;;;10.80;64.10;;;9.18;67.82;101484.28;8393629;28;20039;-79
2021/12/19 17:02:05;;;;;;;1.42;1.33;;;10.70;63.90;;;9.19;67.89;101480.75;8376491;28;20149;-79
2021/12/19 17:06:27;;;;;;;1.50;1.20;;;10.70;63.80;;;9.17;67.61;101500.78;8379484;28;20036;-79
2021/12/19 17:10:48;;;;;;;2.40;1.25;;;10.70;63.70;;;9.13;67.71;101495.75;8385098;28;20485;-79
2021/12/19 17:15:10;;;;;;;2.10;1.15;;;10.60;63.60;;;8.99;67.57;101491.91;8374985;28;20051;-78
2021/12/19 17:19:32;;;;;;;1.48;1.00;;;10.50;63.50;;;9.02;67.77;101514.41;8389893;28;20044;-78
2021/12/19 17:23:54;;;;;;;1.77;0.90;;;10.50;63.40;;;9.00;67.49;101503.19;8379839;28;20408;-78
2021/12/19 17:28:16;;;;;;;3.65;1.63;;;10.50;63.50;;;8.89;67.32;101497.50;8384234;28;20408;-75
2021/12/19 17:32:38;;;;;;;2.00;0.93;;;10.40;63.50;;;8.91;67.50;101509.56;8366925;28;20032;-76
2021/12/19 17:37:01;;;;;;;2.13;1.17;;;10.40;63.70;;;8.97;67.18;101506.75;8381876;28;20738;-77
2021/12/19 17:41:26;;;;;;;3.45;1.20;;;10.40;63.70;;;8.91;67.68;101506.97;8378030;28;20040;-78
2021/12/19 17:45:56;;;;;;;2.15;1.40;;;10.40;63.70;;;8.89;67.21;101519.19;8384493;28;20044;-76
2021/12/19 17:50:18;;;;;;;4.55;1.90;;;10.40;63.70;;;8.82;67.42;101531.56;8385442;28;20040;-75
2021/12/19 17:54:40;;;;;;;3.25;1.10;;;10.30;63.60;;;8.85;67.39;101533.22;8385055;28;20041;-79
2021/12/19 17:59:02;;;;;;;2.03;1.27;;;10.30;63.80;;;8.81;67.54;101529.88;8385297;28;20044;-77
2021/12/19 18:03:28;;;;;;;5.68;1.80;;;10.40;64.00;;;8.85;67.65;101538.41;8374118;28;20043;-76
2021/12/19 18:07:51;;;;;;;1.83;1.30;;;10.30;63.90;;;8.83;67.47;101546.31;8366004;28;20041;-76
2021/12/19 18:12:12;;;;;;;2.38;1.52;;;10.40;64.10;;;8.84;67.54;101562.78;8365528;28;20507;-77
2021/12/19 18:16:34;;;;;;;3.30;1.63;;;10.20;63.90;;;8.82;67.67;101573.22;8353147;28;20044;-77
2021/12/19 18:20:57;;;;;;;3.15;1.40;;;10.30;64.00;;;8.81;67.60;101565.47;8358225;28;20045;-78
2021/12/19 18:25:20;;;;;;;3.53;1.67;;;10.30;64.00;;;8.77;67.47;101571.69;8382247;28;20047;-76
2021/12/19 18:29:44;;;;;;;3.70;1.52;;;10.30;63.90;;;8.78;67.42;101589.03;8384738;28;20032;-75
2021/12/19 18:34:19;;;;;;;2.95;1.33;;;10.30;63.70;;;8.75;67.59;101586.50;8384379;28;20036;-78
2021/12/19 18:38:42;;;;;;;3.55;1.50;;;10.40;63.70;;;8.78;67.25;101599.44;8360255;28;20515;-77
2021/12/19 18:43:15;;;;;;;5.35;1.20;;;10.30;63.30;;;8.72;67.49;101592.69;8366869;28;20042;-78
2021/12/19 18:48:02;;;;;;;1.27;1.13;;;10.20;63.10;;;8.73;67.66;101612.63;8368418;28;20493;-77
2021/12/19 18:52:39;;;;;;;7.65;1.90;;;10.20;62.90;;;8.62;67.44;101593.91;8378767;28;20036;-77
2021/12/19 18:57:06;;;;;;;2.95;1.50;;;10.20;62.90;;;8.62;67.20;101618.19;8365593;28;20060;-77
2021/12/19 19:01:39;;;;;;;1.33;1.20;;;10.20;62.50;;;8.35;nan;101591.25;8386047;28;20032;-75
2021/12/19 19:06:22;;;;;;;2.45;1.30;;;10.10;62.50;;;8.50;67.47;101623.75;8367758;28;20041;-76
2021/12/19 19:10:44;;;;;;;3.53;1.30;;;10.00;62.40;;;8.45;67.36;101637.81;8369009;28;20493;-74
2021/12/19 19:15:07;;;;;;;2.58;0.93;;;10.00;62.50;;;8.40;67.27;101630.19;8383492;28;20044;-79
2021/12/19 19:19:29;;;;;;;2.90;1.63;;;10.00;62.60;;;8.40;67.40;101644.03;8351029;28;20033;-79
2021/12/19 19:23:52;;;;;;;2.63;1.35;;;9.90;61.90;;;8.28;67.33;101626.16;8357760;28;20048;-75
2021/12/19 19:28:14;;;;;;;2.08;1.20;;;9.90;61.70;;;8.30;67.32;101641.75;8367425;28;20821;-75
2021/12/19 19:32:36;;;;;;;2.85;1.10;;;10.00;61.60;;;8.24;67.40;101655.81;8378129;28;20039;-79